sensor_id;sensor_type;location;lat;lon;timestamp;P1;durP1;ratioP1;P2;durP2;ratioP2
67500;SDS011;54349;52.528;19.760;2023-03-01T00:01:47;14.00;;;6.80;;
67500;SDS011;54349;52.528;19.760;2023-03-01T00:04:16;13.90;;;6.70;;
67500;SDS011;54349;52.528;19.760;2023-03-01T00:06:44;10.90;;;6.40;;
67500;SDS011;54349;52.528;19.760;2023-03-01T00:09:16;13.60;;;6.10;;
67500;SDS011;54349;52.528;19.760;2023-03-01T00:11:45;11.80;;;6.30;;
67500;SDS011;54349;52.528;19.760;2023-03-01T00:14:14;11.60;;;6.50;;
67500;SDS011;54349;52.528;19.760;2023-03-01T00:16:46;11.80;;;6.30;;
67500;SDS011;54349;52.528;19.760;2023-03-01T00:19:16;11.80;;;6.30;;
67500;SDS011;54349;52.528;19.760;2023-03-01T00:21:45;12.00;;;6.40;;
67500;SDS011;54349;52.528;19.760;2023-03-01T00:24:14;11.70;;;6.50;;
67500;SDS011;54349;52.528;19.760;2023-03-01T00:26:43;12.50;;;6.90;;
67500;SDS011;54349;52.528;19.760;2023-03-01T00:29:12;13.80;;;6.60;;
67500;SDS011;54349;52.528;19.760;2023-03-01T00:31:40;15.70;;;6.80;;
67500;SDS011;54349;52.528;19.760;2023-03-01T00:34:09;12.00;;;6.60;;
67500;SDS011;54349;52.528;19.760;2023-03-01T00:36:37;10.70;;;6.40;;
67500;SDS011;54349;52.528;19.760;2023-03-01T00:39:11;10.90;;;6.70;;
67500;SDS011;54349;52.528;19.760;2023-03-01T00:41:42;12.00;;;6.50;;
67500;SDS011;54349;52.528;19.760;2023-03-01T00:44:10;12.00;;;7.00;;
67500;SDS011;54349;52.528;19.760;2023-03-01T00:46:38;11.00;;;6.40;;
67500;SDS011;54349;52.528;19.760;2023-03-01T00:49:06;11.30;;;6.90;;
67500;SDS011;54349;52.528;19.760;2023-03-01T00:51:35;9.60;;;6.40;;
67500;SDS011;54349;52.528;19.760;2023-03-01T00:54:03;10.90;;;6.40;;
67500;SDS011;54349;52.528;19.760;2023-03-01T00:56:31;10.90;;;6.60;;
67500;SDS011;54349;52.528;19.760;2023-03-01T00:59:01;10.70;;;6.30;;
67500;SDS011;54349;52.528;19.760;2023-03-01T01:01:30;11.10;;;6.10;;
67500;SDS011;54349;52.528;19.760;2023-03-01T01:04:05;10.60;;;6.50;;
67500;SDS011;54349;52.528;19.760;2023-03-01T01:06:38;10.10;;;6.10;;
67500;SDS011;54349;52.528;19.760;2023-03-01T01:09:12;11.60;;;6.60;;
67500;SDS011;54349;52.528;19.760;2023-03-01T01:14:17;10.50;;;6.00;;
67500;SDS011;54349;52.528;19.760;2023-03-01T01:16:46;10.60;;;6.10;;
67500;SDS011;54349;52.528;19.760;2023-03-01T01:19:15;12.00;;;6.70;;
67500;SDS011;54349;52.528;19.760;2023-03-01T01:21:44;11.30;;;6.70;;
67500;SDS011;54349;52.528;19.760;2023-03-01T01:24:13;11.30;;;6.40;;
67500;SDS011;54349;52.528;19.760;2023-03-01T01:26:43;10.80;;;6.10;;
67500;SDS011;54349;52.528;19.760;2023-03-01T01:29:12;11.40;;;6.20;;
67500;SDS011;54349;52.528;19.760;2023-03-01T01:31:41;9.20;;;5.80;;
67500;SDS011;54349;52.528;19.760;2023-03-01T01:34:19;11.20;;;6.50;;
67500;SDS011;54349;52.528;19.760;2023-03-01T01:36:52;9.60;;;5.80;;
67500;SDS011;54349;52.528;19.760;2023-03-01T01:39:22;10.40;;;6.00;;
67500;SDS011;54349;52.528;19.760;2023-03-01T01:41:50;10.30;;;6.30;;
67500;SDS011;54349;52.528;19.760;2023-03-01T01:44:22;9.90;;;6.00;;
67500;SDS011;54349;52.528;19.760;2023-03-01T01:47:04;12.30;;;5.80;;
67500;SDS011;54349;52.528;19.760;2023-03-01T01:52:20;11.90;;;6.50;;
67500;SDS011;54349;52.528;19.760;2023-03-01T01:55:39;12.70;;;6.60;;
67500;SDS011;54349;52.528;19.760;2023-03-01T01:58:02;11.00;;;6.10;;
67500;SDS011;54349;52.528;19.760;2023-03-01T02:00:33;11.70;;;7.00;;
67500;SDS011;54349;52.528;19.760;2023-03-01T02:03:14;10.40;;;6.20;;
67500;SDS011;54349;52.528;19.760;2023-03-01T02:05:54;12.00;;;6.70;;
67500;SDS011;54349;52.528;19.760;2023-03-01T02:08:31;9.60;;;6.20;;
67500;SDS011;54349;52.528;19.760;2023-03-01T02:11:05;11.80;;;6.80;;
67500;SDS011;54349;52.528;19.760;2023-03-01T02:13:34;10.30;;;6.30;;
67500;SDS011;54349;52.528;19.760;2023-03-01T02:16:14;11.80;;;6.20;;
67500;SDS011;54349;52.528;19.760;2023-03-01T02:18:43;12.30;;;6.90;;
67500;SDS011;54349;52.528;19.760;2023-03-01T02:24:14;11.70;;;6.90;;
67500;SDS011;54349;52.528;19.760;2023-03-01T02:26:51;11.30;;;7.00;;
67500;SDS011;54349;52.528;19.760;2023-03-01T02:29:23;11.20;;;6.90;;
67500;SDS011;54349;52.528;19.760;2023-03-01T02:31:54;10.60;;;6.50;;
67500;SDS011;54349;52.528;19.760;2023-03-01T02:34:27;11.70;;;7.00;;
67500;SDS011;54349;52.528;19.760;2023-03-01T02:37:02;12.60;;;6.70;;
67500;SDS011;54349;52.528;19.760;2023-03-01T02:39:48;12.30;;;7.20;;
67500;SDS011;54349;52.528;19.760;2023-03-01T02:42:36;11.80;;;7.00;;
67500;SDS011;54349;52.528;19.760;2023-03-01T02:45:13;11.70;;;7.00;;
67500;SDS011;54349;52.528;19.760;2023-03-01T02:47:41;12.60;;;7.10;;
67500;SDS011;54349;52.528;19.760;2023-03-01T02:53:16;14.10;;;7.80;;
67500;SDS011;54349;52.528;19.760;2023-03-01T02:56:07;13.90;;;7.20;;
67500;SDS011;54349;52.528;19.760;2023-03-01T02:58:41;12.30;;;7.00;;
67500;SDS011;54349;52.528;19.760;2023-03-01T03:01:20;12.10;;;7.10;;
67500;SDS011;54349;52.528;19.760;2023-03-01T03:03:49;11.00;;;6.90;;
67500;SDS011;54349;52.528;19.760;2023-03-01T03:06:17;12.30;;;6.90;;
67500;SDS011;54349;52.528;19.760;2023-03-01T03:08:46;13.20;;;8.10;;
67500;SDS011;54349;52.528;19.760;2023-03-01T03:11:14;12.50;;;7.20;;
67500;SDS011;54349;52.528;19.760;2023-03-01T03:13:43;12.80;;;7.70;;
67500;SDS011;54349;52.528;19.760;2023-03-01T03:16:16;15.10;;;7.50;;
67500;SDS011;54349;52.528;19.760;2023-03-01T03:18:45;13.70;;;7.30;;
67500;SDS011;54349;52.528;19.760;2023-03-01T03:21:14;13.30;;;7.50;;
67500;SDS011;54349;52.528;19.760;2023-03-01T03:23:44;12.30;;;7.50;;
67500;SDS011;54349;52.528;19.760;2023-03-01T03:26:12;12.50;;;7.60;;
67500;SDS011;54349;52.528;19.760;2023-03-01T03:28:41;14.00;;;8.20;;
67500;SDS011;54349;52.528;19.760;2023-03-01T03:31:09;13.90;;;7.50;;
67500;SDS011;54349;52.528;19.760;2023-03-01T03:33:38;13.10;;;7.70;;
67500;SDS011;54349;52.528;19.760;2023-03-01T03:36:07;13.60;;;8.10;;
67500;SDS011;54349;52.528;19.760;2023-03-01T03:38:40;15.20;;;8.30;;
67500;SDS011;54349;52.528;19.760;2023-03-01T03:41:09;13.40;;;7.90;;
67500;SDS011;54349;52.528;19.760;2023-03-01T03:43:38;15.20;;;8.10;;
67500;SDS011;54349;52.528;19.760;2023-03-01T03:46:09;12.80;;;7.90;;
67500;SDS011;54349;52.528;19.760;2023-03-01T03:48:41;15.00;;;8.00;;
67500;SDS011;54349;52.528;19.760;2023-03-01T03:51:13;13.90;;;8.10;;
67500;SDS011;54349;52.528;19.760;2023-03-01T03:53:43;14.60;;;8.10;;
67500;SDS011;54349;52.528;19.760;2023-03-01T03:56:12;13.90;;;8.30;;
67500;SDS011;54349;52.528;19.760;2023-03-01T03:58:41;14.30;;;8.40;;
67500;SDS011;54349;52.528;19.760;2023-03-01T04:01:09;14.40;;;8.70;;
67500;SDS011;54349;52.528;19.760;2023-03-01T04:03:37;16.00;;;8.80;;
67500;SDS011;54349;52.528;19.760;2023-03-01T04:06:05;15.60;;;8.70;;
67500;SDS011;54349;52.528;19.760;2023-03-01T04:08:33;16.20;;;9.60;;
67500;SDS011;54349;52.528;19.760;2023-03-01T04:11:03;16.70;;;9.10;;
67500;SDS011;54349;52.528;19.760;2023-03-01T04:13:53;15.60;;;9.20;;
67500;SDS011;54349;52.528;19.760;2023-03-01T04:16:24;15.80;;;9.00;;
67500;SDS011;54349;52.528;19.760;2023-03-01T04:18:52;15.30;;;9.00;;
67500;SDS011;54349;52.528;19.760;2023-03-01T04:21:21;18.00;;;9.80;;
67500;SDS011;54349;52.528;19.760;2023-03-01T04:23:49;17.30;;;8.80;;
67500;SDS011;54349;52.528;19.760;2023-03-01T04:26:20;14.60;;;8.70;;
67500;SDS011;54349;52.528;19.760;2023-03-01T04:28:48;17.80;;;9.20;;
67500;SDS011;54349;52.528;19.760;2023-03-01T04:31:19;16.60;;;8.80;;
67500;SDS011;54349;52.528;19.760;2023-03-01T04:33:54;16.60;;;9.20;;
67500;SDS011;54349;52.528;19.760;2023-03-01T04:36:25;16.40;;;9.60;;
67500;SDS011;54349;52.528;19.760;2023-03-01T04:38:55;15.80;;;9.40;;
67500;SDS011;54349;52.528;19.760;2023-03-01T04:41:24;16.70;;;10.10;;
67500;SDS011;54349;52.528;19.760;2023-03-01T04:43:53;16.90;;;10.20;;
67500;SDS011;54349;52.528;19.760;2023-03-01T04:46:22;17.50;;;9.90;;
67500;SDS011;54349;52.528;19.760;2023-03-01T04:48:50;18.10;;;9.90;;
67500;SDS011;54349;52.528;19.760;2023-03-01T04:51:19;18.20;;;9.80;;
67500;SDS011;54349;52.528;19.760;2023-03-01T04:53:47;16.20;;;9.80;;
67500;SDS011;54349;52.528;19.760;2023-03-01T04:56:16;17.40;;;10.00;;
67500;SDS011;54349;52.528;19.760;2023-03-01T04:58:47;19.30;;;10.70;;
67500;SDS011;54349;52.528;19.760;2023-03-01T05:01:18;17.90;;;10.40;;
67500;SDS011;54349;52.528;19.760;2023-03-01T05:03:49;17.00;;;9.60;;
67500;SDS011;54349;52.528;19.760;2023-03-01T05:06:19;18.00;;;9.80;;
67500;SDS011;54349;52.528;19.760;2023-03-01T05:08:49;18.00;;;10.60;;
67500;SDS011;54349;52.528;19.760;2023-03-01T05:11:17;17.50;;;9.80;;
67500;SDS011;54349;52.528;19.760;2023-03-01T05:13:45;18.60;;;9.90;;
67500;SDS011;54349;52.528;19.760;2023-03-01T05:16:13;19.40;;;10.00;;
67500;SDS011;54349;52.528;19.760;2023-03-01T05:18:41;17.20;;;10.50;;
67500;SDS011;54349;52.528;19.760;2023-03-01T05:21:11;19.40;;;10.10;;
67500;SDS011;54349;52.528;19.760;2023-03-01T05:23:44;17.70;;;10.10;;
67500;SDS011;54349;52.528;19.760;2023-03-01T05:26:16;17.10;;;9.90;;
67500;SDS011;54349;52.528;19.760;2023-03-01T05:28:55;18.30;;;10.50;;
67500;SDS011;54349;52.528;19.760;2023-03-01T05:31:27;18.10;;;10.00;;
67500;SDS011;54349;52.528;19.760;2023-03-01T05:33:56;18.00;;;10.30;;
67500;SDS011;54349;52.528;19.760;2023-03-01T05:36:24;18.00;;;9.80;;
67500;SDS011;54349;52.528;19.760;2023-03-01T05:38:52;17.90;;;9.70;;
67500;SDS011;54349;52.528;19.760;2023-03-01T05:41:22;16.30;;;9.50;;
67500;SDS011;54349;52.528;19.760;2023-03-01T05:43:50;18.50;;;10.70;;
67500;SDS011;54349;52.528;19.760;2023-03-01T05:46:18;16.70;;;10.10;;
67500;SDS011;54349;52.528;19.760;2023-03-01T05:48:46;17.50;;;10.50;;
67500;SDS011;54349;52.528;19.760;2023-03-01T05:51:16;15.40;;;10.00;;
67500;SDS011;54349;52.528;19.760;2023-03-01T05:53:45;16.40;;;9.60;;
67500;SDS011;54349;52.528;19.760;2023-03-01T05:56:13;17.90;;;9.80;;
67500;SDS011;54349;52.528;19.760;2023-03-01T05:58:41;15.10;;;9.30;;
67500;SDS011;54349;52.528;19.760;2023-03-01T06:01:13;18.20;;;10.70;;
67500;SDS011;54349;52.528;19.760;2023-03-01T06:03:41;18.00;;;10.60;;
67500;SDS011;54349;52.528;19.760;2023-03-01T06:06:09;19.50;;;10.40;;
67500;SDS011;54349;52.528;19.760;2023-03-01T06:08:38;17.90;;;10.60;;
67500;SDS011;54349;52.528;19.760;2023-03-01T06:11:06;15.80;;;10.00;;
67500;SDS011;54349;52.528;19.760;2023-03-01T06:13:35;16.70;;;10.40;;
67500;SDS011;54349;52.528;19.760;2023-03-01T06:16:05;17.40;;;9.60;;
67500;SDS011;54349;52.528;19.760;2023-03-01T06:18:34;18.80;;;10.70;;
67500;SDS011;54349;52.528;19.760;2023-03-01T06:21:05;18.30;;;10.00;;
67500;SDS011;54349;52.528;19.760;2023-03-01T06:23:35;17.60;;;10.30;;
67500;SDS011;54349;52.528;19.760;2023-03-01T06:26:07;17.50;;;10.50;;
67500;SDS011;54349;52.528;19.760;2023-03-01T06:28:36;17.00;;;10.30;;
67500;SDS011;54349;52.528;19.760;2023-03-01T06:31:04;16.10;;;9.80;;
67500;SDS011;54349;52.528;19.760;2023-03-01T06:33:36;19.20;;;10.60;;
67500;SDS011;54349;52.528;19.760;2023-03-01T06:36:05;17.70;;;10.10;;
67500;SDS011;54349;52.528;19.760;2023-03-01T06:38:34;17.80;;;10.10;;
67500;SDS011;54349;52.528;19.760;2023-03-01T06:41:02;18.00;;;10.50;;
67500;SDS011;54349;52.528;19.760;2023-03-01T06:43:30;19.50;;;10.80;;
67500;SDS011;54349;52.528;19.760;2023-03-01T06:45:59;18.20;;;10.10;;
67500;SDS011;54349;52.528;19.760;2023-03-01T06:48:27;17.60;;;10.40;;
67500;SDS011;54349;52.528;19.760;2023-03-01T06:50:58;17.70;;;9.80;;
67500;SDS011;54349;52.528;19.760;2023-03-01T06:53:28;19.40;;;11.00;;
67500;SDS011;54349;52.528;19.760;2023-03-01T06:55:57;20.30;;;11.10;;
67500;SDS011;54349;52.528;19.760;2023-03-01T06:58:27;19.70;;;10.60;;
67500;SDS011;54349;52.528;19.760;2023-03-01T07:00:56;18.70;;;10.40;;
67500;SDS011;54349;52.528;19.760;2023-03-01T07:03:24;16.90;;;9.90;;
67500;SDS011;54349;52.528;19.760;2023-03-01T07:05:52;23.60;;;9.80;;
67500;SDS011;54349;52.528;19.760;2023-03-01T07:08:20;19.10;;;10.00;;
67500;SDS011;54349;52.528;19.760;2023-03-01T07:10:54;21.30;;;10.10;;
67500;SDS011;54349;52.528;19.760;2023-03-01T07:13:24;21.30;;;10.50;;
67500;SDS011;54349;52.528;19.760;2023-03-01T07:15:52;20.90;;;10.10;;
67500;SDS011;54349;52.528;19.760;2023-03-01T07:18:20;24.30;;;10.10;;
67500;SDS011;54349;52.528;19.760;2023-03-01T07:20:49;22.60;;;10.90;;
67500;SDS011;54349;52.528;19.760;2023-03-01T07:23:18;22.20;;;10.80;;
67500;SDS011;54349;52.528;19.760;2023-03-01T07:25:55;23.70;;;11.50;;
67500;SDS011;54349;52.528;19.760;2023-03-01T07:28:23;21.30;;;11.20;;
67500;SDS011;54349;52.528;19.760;2023-03-01T07:30:52;19.00;;;10.40;;
67500;SDS011;54349;52.528;19.760;2023-03-01T07:33:20;20.00;;;10.10;;
67500;SDS011;54349;52.528;19.760;2023-03-01T07:35:55;18.40;;;10.00;;
67500;SDS011;54349;52.528;19.760;2023-03-01T07:38:28;19.20;;;9.30;;
67500;SDS011;54349;52.528;19.760;2023-03-01T07:41:01;20.40;;;10.30;;
67500;SDS011;54349;52.528;19.760;2023-03-01T07:43:30;19.50;;;10.70;;
67500;SDS011;54349;52.528;19.760;2023-03-01T07:46:03;17.00;;;9.70;;
67500;SDS011;54349;52.528;19.760;2023-03-01T07:48:32;18.90;;;9.80;;
67500;SDS011;54349;52.528;19.760;2023-03-01T07:51:03;20.10;;;9.90;;
67500;SDS011;54349;52.528;19.760;2023-03-01T07:53:33;20.00;;;9.80;;
67500;SDS011;54349;52.528;19.760;2023-03-01T07:56:11;20.50;;;9.50;;
67500;SDS011;54349;52.528;19.760;2023-03-01T07:58:42;19.50;;;9.40;;
67500;SDS011;54349;52.528;19.760;2023-03-01T08:01:17;20.70;;;9.90;;
67500;SDS011;54349;52.528;19.760;2023-03-01T08:03:46;16.90;;;9.10;;
67500;SDS011;54349;52.528;19.760;2023-03-01T08:06:16;20.30;;;9.80;;
67500;SDS011;54349;52.528;19.760;2023-03-01T08:08:45;20.30;;;9.40;;
67500;SDS011;54349;52.528;19.760;2023-03-01T08:11:14;17.30;;;9.30;;
67500;SDS011;54349;52.528;19.760;2023-03-01T08:13:43;16.50;;;9.00;;
67500;SDS011;54349;52.528;19.760;2023-03-01T08:16:13;16.20;;;8.40;;
67500;SDS011;54349;52.528;19.760;2023-03-01T08:18:43;18.60;;;9.00;;
67500;SDS011;54349;52.528;19.760;2023-03-01T08:21:13;19.70;;;9.80;;
67500;SDS011;54349;52.528;19.760;2023-03-01T08:23:44;17.40;;;9.40;;
67500;SDS011;54349;52.528;19.760;2023-03-01T08:26:15;18.60;;;9.70;;
67500;SDS011;54349;52.528;19.760;2023-03-01T08:28:46;16.30;;;8.60;;
67500;SDS011;54349;52.528;19.760;2023-03-01T08:31:26;15.60;;;8.70;;
67500;SDS011;54349;52.528;19.760;2023-03-01T08:33:59;18.20;;;9.60;;
67500;SDS011;54349;52.528;19.760;2023-03-01T08:36:40;16.00;;;9.00;;
67500;SDS011;54349;52.528;19.760;2023-03-01T08:39:11;18.50;;;9.70;;
67500;SDS011;54349;52.528;19.760;2023-03-01T08:41:41;18.50;;;8.60;;
67500;SDS011;54349;52.528;19.760;2023-03-01T08:44:12;17.80;;;9.20;;
67500;SDS011;54349;52.528;19.760;2023-03-01T08:46:43;16.00;;;8.30;;
67500;SDS011;54349;52.528;19.760;2023-03-01T08:49:14;18.00;;;9.20;;
67500;SDS011;54349;52.528;19.760;2023-03-01T08:51:45;17.80;;;9.10;;
67500;SDS011;54349;52.528;19.760;2023-03-01T08:54:17;16.40;;;8.90;;
67500;SDS011;54349;52.528;19.760;2023-03-01T08:56:48;17.20;;;9.00;;
67500;SDS011;54349;52.528;19.760;2023-03-01T08:59:17;17.70;;;8.90;;
67500;SDS011;54349;52.528;19.760;2023-03-01T09:01:45;15.80;;;8.30;;
67500;SDS011;54349;52.528;19.760;2023-03-01T09:04:14;17.70;;;8.80;;
67500;SDS011;54349;52.528;19.760;2023-03-01T09:06:43;14.40;;;8.10;;
67500;SDS011;54349;52.528;19.760;2023-03-01T09:09:16;13.50;;;7.50;;
67500;SDS011;54349;52.528;19.760;2023-03-01T09:11:45;16.40;;;8.60;;
67500;SDS011;54349;52.528;19.760;2023-03-01T09:14:14;13.60;;;7.50;;
67500;SDS011;54349;52.528;19.760;2023-03-01T09:16:42;17.90;;;8.40;;
67500;SDS011;54349;52.528;19.760;2023-03-01T09:19:11;14.40;;;7.60;;
67500;SDS011;54349;52.528;19.760;2023-03-01T09:21:39;14.90;;;8.10;;
67500;SDS011;54349;52.528;19.760;2023-03-01T09:24:14;13.50;;;7.50;;
67500;SDS011;54349;52.528;19.760;2023-03-01T09:26:42;17.50;;;7.90;;
67500;SDS011;54349;52.528;19.760;2023-03-01T09:29:16;15.40;;;8.00;;
67500;SDS011;54349;52.528;19.760;2023-03-01T09:31:44;15.10;;;7.70;;
67500;SDS011;54349;52.528;19.760;2023-03-01T09:34:13;14.70;;;7.90;;
67500;SDS011;54349;52.528;19.760;2023-03-01T09:36:43;15.30;;;8.00;;
67500;SDS011;54349;52.528;19.760;2023-03-01T09:39:11;14.50;;;7.60;;
67500;SDS011;54349;52.528;19.760;2023-03-01T09:41:47;14.20;;;7.70;;
67500;SDS011;54349;52.528;19.760;2023-03-01T09:44:40;16.00;;;7.90;;
67500;SDS011;54349;52.528;19.760;2023-03-01T09:47:28;15.40;;;7.70;;
67500;SDS011;54349;52.528;19.760;2023-03-01T09:50:18;12.30;;;6.90;;
67500;SDS011;54349;52.528;19.760;2023-03-01T09:53:02;12.60;;;7.20;;
67500;SDS011;54349;52.528;19.760;2023-03-01T09:56:18;13.20;;;7.60;;
67500;SDS011;54349;52.528;19.760;2023-03-01T09:58:54;12.70;;;7.00;;
67500;SDS011;54349;52.528;19.760;2023-03-01T10:01:34;11.00;;;6.90;;
67500;SDS011;54349;52.528;19.760;2023-03-01T10:04:42;11.70;;;7.00;;
67500;SDS011;54349;52.528;19.760;2023-03-01T10:07:32;13.00;;;7.30;;
67500;SDS011;54349;52.528;19.760;2023-03-01T10:10:27;11.90;;;7.10;;
67500;SDS011;54349;52.528;19.760;2023-03-01T10:13:19;12.80;;;6.50;;
67500;SDS011;54349;52.528;19.760;2023-03-01T10:16:16;14.00;;;7.20;;
67500;SDS011;54349;52.528;19.760;2023-03-01T10:18:58;11.80;;;6.90;;
67500;SDS011;54349;52.528;19.760;2023-03-01T10:21:29;13.00;;;6.70;;
67500;SDS011;54349;52.528;19.760;2023-03-01T10:24:10;11.50;;;6.60;;
67500;SDS011;54349;52.528;19.760;2023-03-01T10:26:54;11.00;;;6.60;;
67500;SDS011;54349;52.528;19.760;2023-03-01T10:32:35;11.80;;;6.10;;
67500;SDS011;54349;52.528;19.760;2023-03-01T10:35:35;13.50;;;6.70;;
67500;SDS011;54349;52.528;19.760;2023-03-01T10:38:09;10.50;;;6.10;;
67500;SDS011;54349;52.528;19.760;2023-03-01T10:40:52;11.30;;;6.30;;
67500;SDS011;54349;52.528;19.760;2023-03-01T10:43:21;10.80;;;6.70;;
67500;SDS011;54349;52.528;19.760;2023-03-01T10:45:51;13.10;;;6.90;;
67500;SDS011;54349;52.528;19.760;2023-03-01T10:48:24;11.00;;;6.50;;
67500;SDS011;54349;52.528;19.760;2023-03-01T10:53:28;11.00;;;6.50;;
67500;SDS011;54349;52.528;19.760;2023-03-01T10:56:06;12.20;;;6.30;;
67500;SDS011;54349;52.528;19.760;2023-03-01T10:58:38;12.10;;;6.40;;
67500;SDS011;54349;52.528;19.760;2023-03-01T11:01:28;10.00;;;6.10;;
67500;SDS011;54349;52.528;19.760;2023-03-01T11:06:36;11.10;;;6.30;;
67500;SDS011;54349;52.528;19.760;2023-03-01T11:09:19;11.20;;;6.30;;
67500;SDS011;54349;52.528;19.760;2023-03-01T11:11:56;13.40;;;6.00;;
67500;SDS011;54349;52.528;19.760;2023-03-01T11:14:33;10.80;;;6.10;;
67500;SDS011;54349;52.528;19.760;2023-03-01T11:17:29;11.00;;;5.90;;
67500;SDS011;54349;52.528;19.760;2023-03-01T11:22:58;10.90;;;6.30;;
67500;SDS011;54349;52.528;19.760;2023-03-01T11:25:37;10.60;;;5.80;;
67500;SDS011;54349;52.528;19.760;2023-03-01T11:28:17;11.20;;;5.90;;
67500;SDS011;54349;52.528;19.760;2023-03-01T11:30:53;10.10;;;5.30;;
67500;SDS011;54349;52.528;19.760;2023-03-01T11:36:32;10.80;;;5.90;;
67500;SDS011;54349;52.528;19.760;2023-03-01T11:39:28;10.40;;;6.00;;
67500;SDS011;54349;52.528;19.760;2023-03-01T11:42:12;8.50;;;5.30;;
67500;SDS011;54349;52.528;19.760;2023-03-01T11:44:53;7.80;;;4.90;;
67500;SDS011;54349;52.528;19.760;2023-03-01T11:47:50;9.70;;;5.50;;
67500;SDS011;54349;52.528;19.760;2023-03-01T11:50:47;10.20;;;5.70;;
67500;SDS011;54349;52.528;19.760;2023-03-01T11:53:30;9.70;;;5.50;;
67500;SDS011;54349;52.528;19.760;2023-03-01T12:03:02;9.10;;;5.10;;
67500;SDS011;54349;52.528;19.760;2023-03-01T12:05:59;8.80;;;5.30;;
67500;SDS011;54349;52.528;19.760;2023-03-01T12:14:36;8.90;;;5.20;;
67500;SDS011;54349;52.528;19.760;2023-03-01T12:20:32;9.00;;;5.10;;
67500;SDS011;54349;52.528;19.760;2023-03-01T12:27:06;10.80;;;5.60;;
67500;SDS011;54349;52.528;19.760;2023-03-01T12:29:54;9.80;;;5.40;;
67500;SDS011;54349;52.528;19.760;2023-03-01T12:33:08;8.60;;;4.70;;
67500;SDS011;54349;52.528;19.760;2023-03-01T12:39:14;8.10;;;4.60;;
67500;SDS011;54349;52.528;19.760;2023-03-01T12:51:36;7.40;;;4.80;;
67500;SDS011;54349;52.528;19.760;2023-03-01T12:54:16;7.80;;;4.90;;
67500;SDS011;54349;52.528;19.760;2023-03-01T12:56:51;10.00;;;5.10;;
67500;SDS011;54349;52.528;19.760;2023-03-01T13:06:15;9.30;;;5.40;;
67500;SDS011;54349;52.528;19.760;2023-03-01T13:08:56;8.50;;;5.30;;
67500;SDS011;54349;52.528;19.760;2023-03-01T13:11:32;8.80;;;5.10;;
67500;SDS011;54349;52.528;19.760;2023-03-01T13:16:59;8.90;;;5.20;;
67500;SDS011;54349;52.528;19.760;2023-03-01T13:19:29;8.30;;;4.50;;
67500;SDS011;54349;52.528;19.760;2023-03-01T13:21:59;8.00;;;4.50;;
67500;SDS011;54349;52.528;19.760;2023-03-01T13:24:38;8.70;;;4.70;;
67500;SDS011;54349;52.528;19.760;2023-03-01T13:27:26;8.90;;;4.90;;
67500;SDS011;54349;52.528;19.760;2023-03-01T13:29:59;7.60;;;4.20;;
67500;SDS011;54349;52.528;19.760;2023-03-01T13:32:33;9.00;;;5.00;;
67500;SDS011;54349;52.528;19.760;2023-03-01T13:37:43;7.20;;;4.40;;
67500;SDS011;54349;52.528;19.760;2023-03-01T13:42:46;7.90;;;4.40;;
67500;SDS011;54349;52.528;19.760;2023-03-01T13:48:22;8.30;;;4.80;;
67500;SDS011;54349;52.528;19.760;2023-03-01T13:51:03;7.70;;;4.30;;
67500;SDS011;54349;52.528;19.760;2023-03-01T13:53:36;8.30;;;4.30;;
67500;SDS011;54349;52.528;19.760;2023-03-01T13:56:21;8.20;;;4.40;;
67500;SDS011;54349;52.528;19.760;2023-03-01T13:59:04;8.10;;;4.30;;
67500;SDS011;54349;52.528;19.760;2023-03-01T14:01:40;7.90;;;4.70;;
67500;SDS011;54349;52.528;19.760;2023-03-01T14:04:29;8.30;;;4.50;;
67500;SDS011;54349;52.528;19.760;2023-03-01T14:07:21;7.40;;;4.30;;
67500;SDS011;54349;52.528;19.760;2023-03-01T14:15:47;7.10;;;4.20;;
67500;SDS011;54349;52.528;19.760;2023-03-01T14:19:16;7.70;;;4.10;;
67500;SDS011;54349;52.528;19.760;2023-03-01T14:21:29;8.10;;;4.40;;
67500;SDS011;54349;52.528;19.760;2023-03-01T14:23:58;8.00;;;4.00;;
67500;SDS011;54349;52.528;19.760;2023-03-01T14:26:27;9.30;;;4.60;;
67500;SDS011;54349;52.528;19.760;2023-03-01T14:28:56;7.60;;;4.40;;
67500;SDS011;54349;52.528;19.760;2023-03-01T14:31:38;7.10;;;4.30;;
67500;SDS011;54349;52.528;19.760;2023-03-01T14:34:22;7.70;;;4.60;;
67500;SDS011;54349;52.528;19.760;2023-03-01T14:36:51;8.40;;;4.90;;
67500;SDS011;54349;52.528;19.760;2023-03-01T14:39:24;10.20;;;5.30;;
67500;SDS011;54349;52.528;19.760;2023-03-01T14:41:58;9.10;;;4.70;;
67500;SDS011;54349;52.528;19.760;2023-03-01T14:44:45;8.50;;;4.80;;
67500;SDS011;54349;52.528;19.760;2023-03-01T14:47:35;8.70;;;4.90;;
67500;SDS011;54349;52.528;19.760;2023-03-01T14:52:52;8.90;;;5.60;;
67500;SDS011;54349;52.528;19.760;2023-03-01T14:55:28;9.80;;;5.10;;
67500;SDS011;54349;52.528;19.760;2023-03-01T15:00:32;7.60;;;5.10;;
67500;SDS011;54349;52.528;19.760;2023-03-01T15:03:13;8.60;;;5.20;;
67500;SDS011;54349;52.528;19.760;2023-03-01T15:05:47;8.20;;;5.00;;
67500;SDS011;54349;52.528;19.760;2023-03-01T15:08:22;8.50;;;5.20;;
67500;SDS011;54349;52.528;19.760;2023-03-01T15:13:58;8.40;;;4.90;;
67500;SDS011;54349;52.528;19.760;2023-03-01T15:16:32;7.10;;;4.40;;
67500;SDS011;54349;52.528;19.760;2023-03-01T15:19:06;9.80;;;5.00;;
67500;SDS011;54349;52.528;19.760;2023-03-01T15:21:37;9.50;;;4.90;;
67500;SDS011;54349;52.528;19.760;2023-03-01T15:26:59;8.80;;;4.40;;
67500;SDS011;54349;52.528;19.760;2023-03-01T15:29:34;10.20;;;4.90;;
67500;SDS011;54349;52.528;19.760;2023-03-01T15:32:26;8.00;;;4.40;;
67500;SDS011;54349;52.528;19.760;2023-03-01T15:35:01;8.50;;;4.30;;
67500;SDS011;54349;52.528;19.760;2023-03-01T15:38:34;7.20;;;4.40;;
67500;SDS011;54349;52.528;19.760;2023-03-01T15:41:26;7.60;;;4.10;;
67500;SDS011;54349;52.528;19.760;2023-03-01T15:44:17;7.10;;;4.30;;
67500;SDS011;54349;52.528;19.760;2023-03-01T15:47:08;9.50;;;5.00;;
67500;SDS011;54349;52.528;19.760;2023-03-01T15:49:52;7.50;;;4.20;;
67500;SDS011;54349;52.528;19.760;2023-03-01T15:52:28;8.50;;;4.50;;
67500;SDS011;54349;52.528;19.760;2023-03-01T15:55:16;8.80;;;4.70;;
67500;SDS011;54349;52.528;19.760;2023-03-01T15:57:50;8.40;;;5.00;;
67500;SDS011;54349;52.528;19.760;2023-03-01T16:00:28;7.90;;;4.60;;
67500;SDS011;54349;52.528;19.760;2023-03-01T16:02:56;9.30;;;4.80;;
67500;SDS011;54349;52.528;19.760;2023-03-01T16:05:27;8.30;;;4.60;;
67500;SDS011;54349;52.528;19.760;2023-03-01T16:07:58;8.40;;;4.40;;
67500;SDS011;54349;52.528;19.760;2023-03-01T16:10:27;7.40;;;4.40;;
67500;SDS011;54349;52.528;19.760;2023-03-01T16:12:55;8.90;;;4.70;;
67500;SDS011;54349;52.528;19.760;2023-03-01T16:15:29;7.60;;;4.50;;
67500;SDS011;54349;52.528;19.760;2023-03-01T16:18:00;8.30;;;5.00;;
67500;SDS011;54349;52.528;19.760;2023-03-01T16:20:29;8.70;;;4.90;;
67500;SDS011;54349;52.528;19.760;2023-03-01T16:23:03;9.30;;;5.00;;
67500;SDS011;54349;52.528;19.760;2023-03-01T16:25:35;9.30;;;5.50;;
67500;SDS011;54349;52.528;19.760;2023-03-01T16:28:04;8.80;;;5.30;;
67500;SDS011;54349;52.528;19.760;2023-03-01T16:30:38;12.00;;;5.80;;
67500;SDS011;54349;52.528;19.760;2023-03-01T16:33:09;9.80;;;5.90;;
67500;SDS011;54349;52.528;19.760;2023-03-01T16:35:57;9.80;;;5.50;;
67500;SDS011;54349;52.528;19.760;2023-03-01T16:38:28;9.20;;;5.50;;